Alta Vista, Kansas
Current Conditions -  °F | °C
As of 8:08 AM on Thursday 23 Oct 2014 (Local Time) from KFRI Reporting Station
Overcast Overcast  
Wind Chill: 61°   Ceiling: 900
Heat Index: 61°   Visibility: 10mi
Dew Point: 61°   Wind: 6mph
Humidity: 100%   Direction: 180°S
Pressure: 30.07"   Gusts: NA
Location:  38.86°N, 96.49°W
Report Text: KFRI 231308Z AUTO 18005KT 10SM BKN009 OVC016 16/16 A3007 RMK AO2 CIG 009V016
Loading
Personal Weather Stations






























Interactive Weather Map
Tropical Storm Tracking
New forecast layout! Learn more

10-Day Weather Forecast

Advertisements
Track Severe Weather on mobile